createdAt,value
2023-03-06T00:00:29.773Z,72.40
2023-03-06T00:02:57.044Z,72.60
2023-03-06T00:05:24.098Z,72.70
2023-03-06T00:07:51.059Z,72.70
2023-03-06T00:10:23.821Z,73.00
2023-03-06T00:12:55.767Z,73.10
2023-03-06T00:15:23.776Z,73.10
2023-03-06T00:17:51.088Z,73.10
2023-03-06T00:20:18.453Z,73.10
2023-03-06T00:22:45.365Z,73.00
2023-03-06T00:25:18.539Z,73.10
2023-03-06T00:27:45.754Z,73.20
2023-03-06T00:30:15.875Z,73.40
2023-03-06T00:32:43.474Z,73.60
2023-03-06T00:35:11.102Z,73.70
2023-03-06T00:37:38.461Z,73.70
2023-03-06T00:40:11.702Z,73.70
2023-03-06T00:42:38.655Z,73.60
2023-03-06T00:45:05.856Z,73.90
2023-03-06T00:47:33.027Z,73.90
2023-03-06T00:49:59.791Z,73.90
2023-03-06T00:52:26.650Z,74.00
2023-03-06T00:54:53.629Z,74.20
2023-03-06T00:57:20.489Z,74.30
2023-03-06T00:59:47.262Z,74.20
2023-03-06T01:02:14.543Z,74.00
2023-03-06T01:04:41.758Z,74.00
2023-03-06T01:07:08.660Z,74.00
2023-03-06T01:09:35.439Z,74.00
2023-03-06T01:12:02.275Z,74.00
2023-03-06T01:14:29.295Z,73.90
2023-03-06T01:16:56.268Z,73.90
2023-03-06T01:19:23.202Z,74.00
2023-03-06T01:21:50.783Z,74.00
2023-03-06T01:24:17.659Z,74.20
2023-03-06T01:26:45.042Z,74.40
2023-03-06T01:29:11.908Z,74.40
2023-03-06T01:31:39.008Z,74.40
2023-03-06T01:34:09.112Z,74.30
2023-03-06T01:36:36.003Z,74.30
2023-03-06T01:39:03.785Z,74.20
2023-03-06T01:41:32.566Z,74.00
2023-03-06T01:43:59.575Z,74.00
2023-03-06T01:46:30.190Z,74.00
2023-03-06T01:49:00.076Z,74.10
2023-03-06T01:51:32.053Z,74.20
2023-03-06T01:54:02.407Z,74.20
2023-03-06T01:56:30.027Z,74.10
2023-03-06T01:58:58.393Z,74.20
2023-03-06T02:01:26.279Z,74.40
2023-03-06T02:03:54.674Z,74.40
2023-03-06T02:06:22.758Z,74.40
2023-03-06T02:08:52.813Z,74.40
2023-03-06T02:11:24.407Z,74.50
2023-03-06T02:13:53.699Z,74.40
2023-03-06T02:16:25.966Z,74.50
2023-03-06T02:18:53.443Z,74.50
2023-03-06T02:21:27.204Z,74.40
2023-03-06T02:24:12.225Z,74.50
2023-03-06T02:26:41.210Z,74.70
2023-03-06T02:29:09.211Z,74.70
2023-03-06T02:31:36.164Z,74.80
2023-03-06T02:34:15.351Z,74.70
2023-03-06T02:36:47.676Z,74.60
2023-03-06T02:39:15.885Z,74.90
2023-03-06T02:41:42.897Z,74.90
2023-03-06T02:44:09.928Z,75.00
2023-03-06T02:46:36.780Z,75.20
2023-03-06T02:49:03.609Z,75.20
2023-03-06T02:51:30.475Z,75.50
2023-03-06T02:53:57.397Z,75.50
2023-03-06T02:56:24.399Z,75.60
2023-03-06T02:58:52.063Z,75.50
2023-03-06T03:01:19.794Z,75.60
2023-03-06T03:03:47.136Z,75.50
2023-03-06T03:06:14.836Z,75.50
2023-03-06T03:08:42.589Z,75.40
2023-03-06T03:11:10.183Z,75.40
2023-03-06T03:13:39.992Z,75.40
2023-03-06T03:16:15.361Z,75.40
2023-03-06T03:18:48.122Z,75.40
2023-03-06T03:21:17.264Z,75.50
2023-03-06T03:23:45.090Z,75.60
2023-03-06T03:26:15.835Z,75.70
2023-03-06T03:28:47.254Z,75.70
2023-03-06T03:31:17.285Z,75.70
2023-03-06T03:33:44.340Z,75.70
2023-03-06T03:36:12.349Z,75.80
2023-03-06T03:38:42.639Z,75.90
2023-03-06T03:41:10.022Z,76.10
2023-03-06T03:43:36.940Z,76.10
2023-03-06T03:46:04.505Z,76.00
2023-03-06T03:48:31.805Z,76.00
2023-03-06T03:51:11.874Z,76.00
2023-03-06T03:53:44.025Z,76.00
2023-03-06T03:56:13.296Z,76.00
2023-03-06T03:58:48.401Z,76.00
2023-03-06T04:01:15.579Z,76.00
2023-03-06T04:03:43.133Z,76.10
2023-03-06T04:06:11.358Z,76.10
2023-03-06T04:08:39.425Z,76.10
2023-03-06T04:11:06.399Z,76.00
2023-03-06T04:13:33.197Z,75.90
2023-03-06T04:16:00.684Z,75.80
2023-03-06T04:18:29.905Z,75.90
2023-03-06T04:21:01.169Z,75.80
2023-03-06T04:23:28.414Z,75.80
2023-03-06T04:25:56.166Z,75.70
2023-03-06T04:28:23.700Z,75.80
2023-03-06T04:30:51.227Z,75.90
2023-03-06T04:33:20.173Z,75.80
2023-03-06T04:35:47.122Z,75.80
2023-03-06T04:38:19.619Z,75.70
2023-03-06T04:40:46.712Z,75.70
2023-03-06T04:43:13.495Z,75.70
2023-03-06T04:45:40.373Z,75.70
2023-03-06T04:48:07.780Z,75.90
2023-03-06T04:50:35.300Z,75.90
2023-03-06T04:53:03.500Z,75.90
2023-03-06T04:55:30.867Z,76.00
2023-03-06T04:57:58.965Z,76.10
2023-03-06T05:00:31.714Z,76.10
2023-03-06T05:03:00.883Z,76.20
2023-03-06T05:05:28.346Z,76.30
2023-03-06T05:07:55.492Z,76.30
2023-03-06T05:10:23.410Z,76.30
2023-03-06T05:12:50.402Z,76.30
2023-03-06T05:15:17.950Z,76.30
2023-03-06T05:17:44.874Z,76.50
2023-03-06T05:20:12.534Z,76.50
2023-03-06T05:22:40.095Z,76.60
2023-03-06T05:25:07.507Z,76.70
2023-03-06T05:27:34.888Z,76.70
2023-03-06T05:30:01.861Z,76.70
2023-03-06T05:32:28.839Z,76.80
2023-03-06T05:34:55.780Z,76.90
2023-03-06T05:37:25.919Z,77.00
2023-03-06T05:39:52.981Z,76.80
2023-03-06T05:42:19.883Z,76.80
2023-03-06T05:44:46.873Z,76.80
2023-03-06T05:47:14.761Z,77.00
2023-03-06T05:49:41.725Z,77.10
2023-03-06T05:52:09.273Z,77.00
2023-03-06T05:54:37.614Z,77.20
2023-03-06T05:57:05.690Z,77.30
2023-03-06T05:59:39.590Z,77.50
2023-03-06T06:02:06.988Z,77.50
2023-03-06T06:04:33.969Z,77.50
2023-03-06T06:07:01.196Z,77.60
2023-03-06T06:09:28.624Z,77.50
2023-03-06T06:12:01.581Z,77.50
2023-03-06T06:14:29.808Z,77.50
2023-03-06T06:16:56.804Z,77.30
2023-03-06T06:19:24.013Z,77.20
2023-03-06T06:21:53.833Z,77.40
2023-03-06T06:24:23.115Z,77.30
2023-03-06T06:26:51.792Z,77.30
2023-03-06T06:29:19.149Z,77.40
2023-03-06T06:31:46.468Z,77.50
2023-03-06T06:34:14.299Z,77.50
2023-03-06T06:36:41.854Z,77.60
2023-03-06T06:39:09.753Z,77.60
2023-03-06T06:41:54.920Z,77.80
2023-03-06T06:44:23.671Z,77.80
2023-03-06T06:47:21.311Z,77.80
2023-03-06T06:49:37.455Z,77.90
2023-03-06T06:52:05.904Z,78.00
2023-03-06T06:54:34.225Z,78.00
2023-03-06T06:57:01.296Z,78.00
2023-03-06T06:59:28.240Z,78.00
2023-03-06T07:01:55.131Z,78.00
2023-03-06T07:04:21.959Z,78.00
2023-03-06T07:06:48.843Z,78.00
2023-03-06T07:09:16.422Z,78.20
2023-03-06T07:11:43.360Z,78.20
2023-03-06T07:14:10.235Z,78.20
2023-03-06T07:16:37.204Z,78.20
2023-03-06T07:19:04.413Z,78.10
2023-03-06T07:21:31.225Z,78.10
2023-03-06T07:23:58.058Z,78.00
2023-03-06T07:26:26.353Z,77.90
2023-03-06T07:28:54.076Z,77.90
2023-03-06T07:31:23.760Z,78.00
2023-03-06T07:33:51.217Z,78.00
2023-03-06T07:36:18.442Z,78.00
2023-03-06T07:38:45.549Z,77.90
2023-03-06T07:41:13.817Z,78.00
2023-03-06T07:43:41.900Z,78.10
2023-03-06T07:46:09.195Z,78.00
2023-03-06T07:48:37.717Z,77.90
2023-03-06T07:51:07.122Z,77.80
2023-03-06T07:53:35.512Z,77.80
2023-03-06T07:56:08.881Z,77.80
2023-03-06T07:58:38.060Z,77.70
2023-03-06T08:01:06.627Z,77.70
2023-03-06T08:03:33.895Z,77.60
2023-03-06T08:06:07.087Z,77.50
2023-03-06T08:08:35.503Z,77.60
2023-03-06T08:11:02.502Z,77.80
2023-03-06T08:13:29.385Z,77.90
2023-03-06T08:15:56.705Z,77.90
2023-03-06T08:18:23.680Z,78.40
2023-03-06T08:20:50.606Z,79.50
2023-03-06T08:23:17.625Z,80.70
2023-03-06T08:25:44.420Z,81.30
2023-03-06T08:28:11.267Z,80.10
2023-03-06T08:30:38.695Z,78.60
2023-03-06T08:33:05.534Z,77.30
2023-03-06T08:35:32.589Z,76.20
2023-03-06T08:37:59.408Z,76.30
2023-03-06T08:40:30.384Z,76.10
2023-03-06T08:42:57.173Z,76.40
2023-03-06T08:45:23.964Z,75.50
2023-03-06T08:47:50.768Z,74.40
2023-03-06T08:50:18.969Z,73.90
2023-03-06T08:52:45.763Z,73.80
2023-03-06T08:55:14.791Z,71.50
2023-03-06T08:57:41.876Z,70.70
2023-03-06T09:00:10.875Z,66.70
2023-03-06T09:02:37.851Z,64.30
2023-03-06T09:05:09.210Z,63.30
2023-03-06T09:07:36.343Z,63.10
2023-03-06T09:10:03.303Z,60.90
2023-03-06T09:12:32.656Z,59.50
2023-03-06T09:15:05.436Z,57.00
2023-03-06T09:17:32.341Z,54.80
2023-03-06T09:19:59.315Z,53.90
2023-03-06T09:22:26.098Z,54.60
2023-03-06T09:24:54.031Z,52.60
2023-03-06T09:27:22.773Z,53.30
2023-03-06T09:29:49.702Z,52.70
2023-03-06T09:32:16.575Z,51.30
2023-03-06T09:34:43.504Z,51.00
2023-03-06T09:37:10.374Z,49.90
2023-03-06T09:39:41.777Z,49.00
2023-03-06T09:42:15.143Z,47.20
2023-03-06T09:44:43.466Z,47.90
2023-03-06T09:47:35.246Z,46.90
2023-03-06T09:50:43.490Z,45.40
2023-03-06T09:53:19.549Z,45.10
2023-03-06T09:55:51.726Z,44.30
2023-03-06T09:58:22.967Z,45.00
2023-03-06T10:01:16.314Z,45.80
2023-03-06T10:03:55.021Z,45.40
2023-03-06T10:06:36.978Z,46.40
2023-03-06T10:09:19.150Z,47.10
2023-03-06T10:11:52.752Z,47.90
2023-03-06T10:14:43.809Z,48.40
2023-03-06T10:17:18.467Z,48.00
2023-03-06T10:19:47.668Z,47.80
2023-03-06T10:22:39.187Z,49.20
2023-03-06T10:25:26.077Z,49.30
2023-03-06T10:28:12.914Z,50.00
2023-03-06T10:31:03.269Z,50.90
2023-03-06T10:33:51.555Z,49.90
2023-03-06T10:36:21.455Z,49.40
2023-03-06T10:38:48.843Z,47.60
2023-03-06T10:41:29.917Z,46.50
2023-03-06T10:43:59.825Z,46.20
2023-03-06T10:46:39.239Z,46.60
2023-03-06T10:49:26.289Z,46.00
2023-03-06T10:51:59.339Z,45.60
2023-03-06T10:54:28.578Z,45.60
2023-03-06T10:56:55.553Z,45.70
2023-03-06T10:59:28.274Z,45.50
2023-03-06T11:02:14.237Z,46.20
2023-03-06T11:04:46.562Z,46.30
2023-03-06T11:07:21.608Z,46.00
2023-03-06T11:09:57.408Z,44.50
2023-03-06T11:12:42.514Z,45.10
2023-03-06T11:15:23.514Z,45.00
2023-03-06T11:18:07.503Z,45.00
2023-03-06T11:20:50.008Z,45.60
2023-03-06T11:23:38.354Z,46.40
2023-03-06T11:26:25.485Z,47.30
2023-03-06T11:29:15.845Z,48.20
2023-03-06T11:31:58.450Z,48.60
2023-03-06T11:34:34.779Z,49.10
2023-03-06T11:37:40.164Z,50.00
2023-03-06T11:40:40.337Z,51.00
2023-03-06T11:43:16.066Z,51.80
2023-03-06T11:45:47.285Z,52.50
2023-03-06T11:48:14.141Z,53.30
2023-03-06T11:50:42.941Z,53.70
2023-03-06T11:53:14.975Z,54.50
2023-03-06T11:56:03.514Z,55.10
2023-03-06T11:59:11.891Z,55.60
2023-03-06T12:01:38.820Z,56.20
2023-03-06T12:04:05.626Z,56.20
2023-03-06T12:06:56.748Z,55.90
2023-03-06T12:09:26.412Z,55.50
2023-03-06T12:15:12.238Z,54.70
2023-03-06T12:17:57.174Z,55.60
2023-03-06T12:20:48.322Z,55.70
2023-03-06T12:23:53.691Z,53.70
2023-03-06T12:26:48.638Z,50.80
2023-03-06T12:29:44.847Z,49.20
2023-03-06T12:32:35.111Z,50.00
2023-03-06T12:35:32.537Z,50.50
2023-03-06T12:38:08.009Z,51.30
2023-03-06T12:40:59.858Z,51.00
2023-03-06T12:43:50.665Z,51.40
2023-03-06T12:46:21.664Z,51.90
2023-03-06T12:49:03.046Z,52.10
2023-03-06T12:51:31.239Z,52.60
2023-03-06T12:54:00.054Z,53.10
2023-03-06T12:56:28.373Z,53.10
2023-03-06T12:58:57.160Z,53.80
2023-03-06T13:01:49.559Z,53.80
2023-03-06T13:04:40.798Z,53.00
2023-03-06T13:07:47.566Z,50.70
2023-03-06T13:10:28.847Z,50.80
2023-03-06T13:13:01.195Z,50.40
2023-03-06T13:15:37.040Z,51.00
2023-03-06T13:18:22.496Z,51.40
2023-03-06T13:20:54.147Z,52.00
2023-03-06T13:23:33.064Z,52.00
2023-03-06T13:26:01.054Z,51.80
2023-03-06T13:28:45.100Z,51.80
2023-03-06T13:31:27.555Z,51.30
2023-03-06T13:34:02.639Z,51.40
2023-03-06T13:36:34.256Z,50.90
2023-03-06T13:39:11.171Z,51.30
2023-03-06T13:41:53.107Z,51.30
2023-03-06T13:44:26.280Z,51.20
2023-03-06T13:46:59.729Z,51.20
2023-03-06T13:49:27.494Z,51.10
2023-03-06T13:51:54.414Z,51.30
2023-03-06T13:54:36.295Z,50.60
2023-03-06T13:57:36.642Z,49.90
2023-03-06T14:00:13.458Z,50.20
2023-03-06T14:03:10.603Z,49.80
2023-03-06T14:05:55.943Z,49.50
2023-03-06T14:08:30.667Z,49.80
2023-03-06T14:11:20.931Z,50.50
2023-03-06T14:13:54.847Z,50.80
2023-03-06T14:16:29.202Z,50.90
2023-03-06T14:19:00.772Z,50.80
2023-03-06T14:21:38.037Z,50.90
2023-03-06T14:24:05.652Z,51.00
2023-03-06T14:26:40.087Z,51.10
2023-03-06T14:29:22.648Z,51.20
2023-03-06T14:31:51.646Z,51.40
2023-03-06T14:34:22.543Z,51.40
2023-03-06T14:36:51.937Z,51.80
2023-03-06T14:39:41.898Z,52.00
2023-03-06T14:42:24.180Z,52.10
2023-03-06T14:45:05.876Z,52.30
2023-03-06T14:47:35.253Z,51.90
2023-03-06T14:50:30.723Z,50.60
2023-03-06T14:53:13.888Z,48.80
2023-03-06T14:55:51.779Z,47.50
2023-03-06T14:58:24.928Z,47.70
2023-03-06T15:00:54.692Z,46.80
2023-03-06T15:03:27.794Z,46.30
2023-03-06T15:05:55.302Z,47.40
2023-03-06T15:11:18.439Z,48.40
2023-03-06T15:14:44.442Z,48.50
2023-03-06T15:17:17.684Z,48.00
2023-03-06T15:19:46.825Z,47.70
2023-03-06T15:22:40.305Z,47.70
2023-03-06T15:25:36.665Z,48.00
2023-03-06T15:28:22.300Z,48.30
2023-03-06T15:31:11.120Z,48.70
2023-03-06T15:33:38.051Z,49.70
2023-03-06T15:36:07.128Z,50.30
2023-03-06T15:38:41.870Z,50.60
2023-03-06T15:41:30.787Z,51.80
2023-03-06T15:44:02.944Z,52.60
2023-03-06T15:46:30.321Z,53.80
2023-03-06T15:49:00.667Z,55.00
2023-03-06T15:51:29.379Z,55.80
2023-03-06T15:54:09.848Z,56.90
2023-03-06T15:56:41.779Z,58.80
2023-03-06T15:59:23.617Z,61.70
2023-03-06T16:01:51.132Z,62.60
2023-03-06T16:04:18.721Z,62.90
2023-03-06T16:06:46.058Z,65.00
2023-03-06T16:09:14.087Z,65.50
2023-03-06T16:11:46.688Z,65.80
2023-03-06T16:14:21.019Z,66.10
2023-03-06T16:16:48.779Z,66.70
2023-03-06T16:19:25.933Z,67.00
2023-03-06T16:21:53.736Z,68.10
2023-03-06T16:24:20.476Z,68.60
2023-03-06T16:26:50.955Z,69.10
2023-03-06T16:29:21.179Z,69.80
2023-03-06T16:31:48.129Z,69.90
2023-03-06T16:34:15.624Z,69.80
2023-03-06T16:36:42.612Z,70.00
2023-03-06T16:39:15.579Z,70.40
2023-03-06T16:41:42.479Z,70.20
2023-03-06T16:44:10.226Z,70.20
2023-03-06T16:46:42.662Z,70.00
2023-03-06T16:49:29.947Z,69.60
2023-03-06T16:51:56.905Z,69.20
2023-03-06T16:54:26.025Z,68.90
2023-03-06T16:56:52.891Z,68.70
2023-03-06T16:59:19.806Z,68.30
2023-03-06T17:01:46.932Z,68.10
2023-03-06T17:04:14.004Z,68.00
2023-03-06T17:06:41.933Z,67.50
2023-03-06T17:09:10.863Z,67.50
2023-03-06T17:11:38.756Z,67.00
2023-03-06T17:14:06.827Z,66.50
2023-03-06T17:16:33.965Z,66.50
2023-03-06T17:19:02.355Z,66.40
2023-03-06T17:21:30.332Z,66.50
2023-03-06T17:23:57.445Z,66.60
2023-03-06T17:26:24.508Z,66.70
2023-03-06T17:28:51.320Z,66.90
2023-03-06T17:31:21.332Z,67.20
2023-03-06T17:33:49.306Z,67.30
2023-03-06T17:36:16.577Z,67.10
2023-03-06T17:38:43.699Z,67.30
2023-03-06T17:41:12.191Z,67.40
2023-03-06T17:43:40.376Z,67.60
2023-03-06T17:46:09.673Z,68.10
2023-03-06T17:48:37.059Z,68.30
2023-03-06T17:51:04.938Z,68.60
2023-03-06T17:53:32.329Z,68.70
2023-03-06T17:55:59.250Z,69.10
2023-03-06T17:58:27.067Z,69.40
2023-03-06T18:00:54.192Z,69.80
2023-03-06T18:03:21.143Z,70.00
2023-03-06T18:05:48.159Z,70.10
2023-03-06T18:08:15.175Z,70.20
2023-03-06T18:10:43.332Z,70.40
2023-03-06T18:13:10.749Z,70.80
2023-03-06T18:15:41.535Z,71.00
2023-03-06T18:18:09.105Z,71.20
2023-03-06T18:20:41.232Z,71.30
2023-03-06T18:23:08.092Z,71.80
2023-03-06T18:25:35.451Z,71.80
2023-03-06T18:28:02.576Z,72.10
2023-03-06T18:30:29.427Z,72.10
2023-03-06T18:32:56.416Z,72.50
2023-03-06T18:35:23.314Z,72.80
2023-03-06T18:37:50.177Z,72.90
2023-03-06T18:40:17.176Z,72.90
2023-03-06T18:42:44.057Z,72.80
2023-03-06T18:45:12.846Z,73.20
2023-03-06T18:47:40.620Z,73.50
2023-03-06T18:50:07.759Z,73.60
2023-03-06T18:52:35.536Z,73.80
2023-03-06T18:55:02.486Z,73.70
2023-03-06T18:57:30.442Z,74.10
2023-03-06T18:59:57.339Z,74.10
2023-03-06T19:02:24.164Z,74.60
2023-03-06T19:04:52.825Z,75.00
2023-03-06T19:07:20.045Z,75.10
2023-03-06T19:09:49.007Z,75.80
2023-03-06T19:12:16.707Z,76.00
2023-03-06T19:14:44.218Z,76.30
2023-03-06T19:17:11.197Z,76.50
2023-03-06T19:19:38.084Z,76.80
2023-03-06T19:22:04.912Z,77.10
2023-03-06T19:24:31.720Z,77.40
2023-03-06T19:26:58.623Z,77.60
2023-03-06T19:29:25.513Z,77.80
2023-03-06T19:31:52.441Z,78.10
2023-03-06T19:34:19.373Z,78.40
2023-03-06T19:36:46.307Z,78.60
2023-03-06T19:39:13.215Z,78.60
2023-03-06T19:41:40.043Z,78.70
2023-03-06T19:44:06.905Z,79.00
2023-03-06T19:46:35.207Z,79.20
2023-03-06T19:49:03.637Z,79.40
2023-03-06T19:51:30.574Z,79.70
2023-03-06T19:53:58.198Z,80.10
2023-03-06T19:56:27.621Z,80.30
2023-03-06T19:58:55.193Z,80.40
2023-03-06T20:01:25.571Z,80.40
2023-03-06T20:03:58.924Z,80.50
2023-03-06T20:06:28.404Z,80.90
2023-03-06T20:08:55.570Z,80.70
2023-03-06T20:11:29.730Z,81.10
2023-03-06T20:13:58.577Z,81.30
2023-03-06T20:16:27.923Z,81.30
2023-03-06T20:18:58.138Z,81.50
2023-03-06T20:21:26.598Z,81.40
2023-03-06T20:23:54.936Z,81.60
2023-03-06T20:26:22.137Z,81.70
2023-03-06T20:28:49.265Z,81.80
2023-03-06T20:31:21.644Z,81.80
2023-03-06T20:33:50.860Z,81.90
2023-03-06T20:36:23.954Z,82.30
2023-03-06T20:38:51.171Z,82.60
2023-03-06T20:41:20.656Z,82.70
2023-03-06T20:43:48.357Z,82.60
2023-03-06T20:46:15.995Z,82.60
2023-03-06T20:48:43.593Z,82.70
2023-03-06T20:51:16.718Z,82.80
2023-03-06T20:53:43.704Z,82.80
2023-03-06T20:56:15.168Z,82.80
2023-03-06T20:58:42.101Z,83.10
2023-03-06T21:01:09.015Z,83.10
2023-03-06T21:03:35.853Z,83.10
2023-03-06T21:06:02.698Z,83.10
2023-03-06T21:08:30.930Z,83.20
2023-03-06T21:10:57.785Z,83.30
2023-03-06T21:13:24.597Z,83.30
2023-03-06T21:15:51.528Z,83.50
2023-03-06T21:18:18.473Z,83.60
2023-03-06T21:20:45.317Z,83.70
2023-03-06T21:23:12.306Z,83.60
2023-03-06T21:25:51.411Z,83.70
2023-03-06T21:28:18.794Z,83.60
2023-03-06T21:30:46.062Z,83.70
2023-03-06T21:33:13.367Z,83.70
2023-03-06T21:35:41.537Z,83.90
2023-03-06T21:38:08.705Z,83.80
2023-03-06T21:40:35.640Z,83.80
2023-03-06T21:43:03.466Z,84.00
2023-03-06T21:45:31.174Z,84.10
2023-03-06T21:47:58.491Z,84.40
2023-03-06T21:50:25.977Z,84.40
2023-03-06T21:52:54.338Z,84.40
2023-03-06T21:55:21.933Z,84.40
2023-03-06T21:57:53.896Z,84.40
2023-03-06T22:00:23.693Z,84.40
2023-03-06T22:02:50.791Z,84.50
2023-03-06T22:05:18.705Z,84.50
2023-03-06T22:07:45.558Z,84.60
2023-03-06T22:10:14.318Z,84.60
2023-03-06T22:12:42.068Z,84.40
2023-03-06T22:15:09.585Z,84.30
2023-03-06T22:17:36.506Z,84.00
2023-03-06T22:20:04.393Z,83.90
2023-03-06T22:22:31.446Z,83.70
2023-03-06T22:24:58.523Z,83.60
2023-03-06T22:27:25.389Z,83.40
2023-03-06T22:29:53.338Z,83.50
2023-03-06T22:32:20.569Z,83.50
2023-03-06T22:34:47.402Z,83.50
2023-03-06T22:37:14.140Z,83.50
2023-03-06T22:39:41.031Z,83.50
2023-03-06T22:42:07.924Z,83.40
2023-03-06T22:44:34.801Z,83.30
2023-03-06T22:47:01.720Z,83.20
2023-03-06T22:49:28.455Z,83.30
2023-03-06T22:51:55.267Z,83.30
2023-03-06T22:54:22.029Z,83.30
2023-03-06T22:56:49.006Z,83.30
2023-03-06T22:59:15.749Z,83.40
2023-03-06T23:01:43.301Z,83.40
2023-03-06T23:04:11.394Z,83.50
2023-03-06T23:06:41.253Z,83.60
2023-03-06T23:09:17.336Z,83.60
2023-03-06T23:12:03.065Z,83.50
2023-03-06T23:14:51.117Z,83.50
2023-03-06T23:17:36.654Z,83.50
2023-03-06T23:20:22.273Z,83.70
2023-03-06T23:23:07.815Z,83.70
2023-03-06T23:25:40.705Z,83.80
2023-03-06T23:28:07.636Z,83.80
2023-03-06T23:30:34.494Z,83.70
2023-03-06T23:33:01.329Z,83.70
2023-03-06T23:35:28.260Z,83.70
2023-03-06T23:37:55.107Z,83.70
2023-03-06T23:40:22.297Z,83.70
2023-03-06T23:42:49.357Z,83.70
2023-03-06T23:45:16.683Z,83.60
2023-03-06T23:47:43.511Z,83.60
2023-03-06T23:50:11.180Z,83.60
2023-03-06T23:52:38.589Z,83.60
2023-03-06T23:55:06.075Z,83.60
2023-03-06T23:57:33.138Z,83.60
